Muana, Brazil
Current Conditions -  °F | °C
As of 6:00 PM on Wednesday 17 Dec 2014 (Local Time) from SBBE Reporting Station
Broken Clouds Broken Clouds  
Wind Chill: 81°   Ceiling: 10000
Heat Index: 85°   Visibility: 6mi
Dew Point: 73°   Wind: 5mph
Humidity: 79%   Direction: 40°NE
Pressure: 29.8"   Gusts: NA
Location:  1.53°S, 49.22°W
Report Text: SBBE 172100Z 04004KT 9999 FEW030 BKN100 27/23 Q1009
Loading
Personal Weather Stations






























Interactive Weather Map New forecast layout! Learn more

10-Day Weather Forecast

Advertisements
Track Severe Weather on mobile